createdAt,value
2018-01-17T00:02:03.330Z,4.2
2018-01-17T00:07:03.447Z,4.2
2018-01-17T00:12:02.779Z,4.1
2018-01-17T00:17:03.664Z,4.1
2018-01-17T00:22:03.431Z,4.0
2018-01-17T00:27:03.025Z,3.9
2018-01-17T00:32:03.039Z,3.8
2018-01-17T00:37:03.119Z,3.7
2018-01-17T00:42:02.900Z,3.7
2018-01-17T00:47:02.875Z,3.7
2018-01-17T00:52:03.437Z,3.7
2018-01-17T00:57:02.910Z,3.7
2018-01-17T01:02:02.873Z,3.8
2018-01-17T01:07:03.414Z,3.9
2018-01-17T01:12:03.467Z,3.8
2018-01-17T01:17:03.380Z,3.9
2018-01-17T01:22:03.688Z,3.8
2018-01-17T01:27:03.376Z,3.8
2018-01-17T01:32:03.325Z,3.8
2018-01-17T01:37:03.367Z,3.7
2018-01-17T01:42:03.302Z,3.7
2018-01-17T01:47:03.160Z,3.6
2018-01-17T01:52:03.102Z,3.6
2018-01-17T01:57:03.118Z,3.6
2018-01-17T02:02:02.962Z,3.6
2018-01-17T02:07:03.383Z,3.5
2018-01-17T02:12:03.769Z,3.6
2018-01-17T02:17:03.550Z,3.6
2018-01-17T02:22:03.566Z,3.7
2018-01-17T02:27:03.505Z,3.7
2018-01-17T02:32:03.476Z,3.8
2018-01-17T02:37:03.366Z,3.8
2018-01-17T02:42:03.213Z,3.8
2018-01-17T02:47:03.145Z,3.8
2018-01-17T02:52:03.303Z,3.8
2018-01-17T02:57:03.196Z,3.9
2018-01-17T03:02:03.156Z,3.8
2018-01-17T03:07:03.052Z,3.8
2018-01-17T03:12:03.242Z,3.8
2018-01-17T03:17:03.677Z,3.7
2018-01-17T03:22:03.610Z,3.8
2018-01-17T03:27:03.524Z,3.8
2018-01-17T03:32:03.503Z,3.9
2018-01-17T03:37:03.758Z,4.0
2018-01-17T03:42:02.890Z,4.0
2018-01-17T03:47:03.207Z,4.0
2018-01-17T03:52:03.480Z,3.9
2018-01-17T03:57:02.662Z,3.7
2018-01-17T04:02:03.135Z,3.5
2018-01-17T04:07:03.441Z,3.3
2018-01-17T04:12:02.832Z,3.3
2018-01-17T04:17:03.665Z,3.1
2018-01-17T04:22:02.721Z,3.1
2018-01-17T04:27:03.254Z,2.4
2018-01-17T04:32:02.969Z,2.2
2018-01-17T04:37:03.268Z,2.0
2018-01-17T04:42:02.757Z,2.0
2018-01-17T04:47:03.106Z,1.9
2018-01-17T04:52:03.301Z,1.9
2018-01-17T04:57:02.957Z,1.9
2018-01-17T05:02:03.207Z,1.8
2018-01-17T05:07:03.613Z,1.8
2018-01-17T05:12:03.072Z,1.8
2018-01-17T05:17:03.536Z,1.8
2018-01-17T05:22:02.783Z,1.9
2018-01-17T05:27:03.070Z,1.9
2018-01-17T05:32:03.277Z,1.9
2018-01-17T05:37:03.220Z,2.1
2018-01-17T05:42:02.796Z,2.0
2018-01-17T05:47:03.032Z,2.0
2018-01-17T05:52:03.385Z,2.0
2018-01-17T05:57:03.411Z,1.9
2018-01-17T06:02:02.878Z,1.9
2018-01-17T06:07:03.203Z,1.9
2018-01-17T06:12:03.504Z,1.9
2018-01-17T06:17:03.283Z,1.9
2018-01-17T06:22:03.377Z,1.9
2018-01-17T06:27:03.550Z,2.0
2018-01-17T06:32:04.765Z,2.0
2018-01-17T06:37:03.580Z,2.0
2018-01-17T06:42:03.220Z,2.1
2018-01-17T06:47:16.504Z,2.0
2018-01-17T06:52:03.217Z,1.9
2018-01-17T06:57:03.372Z,2.0
2018-01-17T07:02:17.440Z,2.0
2018-01-17T07:07:03.233Z,2.0
2018-01-17T07:12:02.660Z,2.0
2018-01-17T07:17:17.457Z,2.0
2018-01-17T07:22:03.086Z,1.9
2018-01-17T07:27:03.220Z,2.0
2018-01-17T07:32:13.454Z,2.0
2018-01-17T07:37:03.610Z,2.0
2018-01-17T07:42:02.821Z,2.1
2018-01-17T07:47:13.001Z,2.0
2018-01-17T07:52:02.741Z,2.1
2018-01-17T07:57:02.736Z,2.2
2018-01-17T08:02:13.299Z,2.3
2018-01-17T08:07:02.924Z,2.4
2018-01-17T08:12:02.979Z,2.4
2018-01-17T08:17:14.198Z,2.6
2018-01-17T08:22:03.528Z,2.7
2018-01-17T08:27:03.224Z,2.6
2018-01-17T08:32:13.637Z,2.7
2018-01-17T08:37:03.337Z,2.8
2018-01-17T08:42:02.897Z,3.1
2018-01-17T08:47:14.045Z,3.0
2018-01-17T08:52:03.472Z,3.1
2018-01-17T08:57:03.195Z,3.2
2018-01-17T09:02:13.501Z,3.2
2018-01-17T09:07:03.024Z,3.0
2018-01-17T09:12:02.809Z,3.0
2018-01-17T09:17:13.831Z,2.6
2018-01-17T09:22:03.191Z,5.0
2018-01-17T09:27:03.389Z,1.9
2018-01-17T09:32:17.018Z,1.7
2018-01-17T09:37:03.228Z,1.7
2018-01-17T09:42:03.094Z,1.6
2018-01-17T09:47:13.668Z,1.5
2018-01-17T09:52:03.301Z,1.5
2018-01-17T09:57:03.274Z,1.5
2018-01-17T10:02:15.481Z,1.6
2018-01-17T10:07:02.782Z,1.8
2018-01-17T10:12:03.404Z,2.0
2018-01-17T10:17:13.666Z,2.0
2018-01-17T10:22:03.533Z,2.2
2018-01-17T10:27:03.545Z,2.3
2018-01-17T10:32:13.116Z,2.4
2018-01-17T10:37:02.954Z,2.4
2018-01-17T10:42:03.577Z,2.9
2018-01-17T10:47:09.990Z,2.9
2018-01-17T10:52:03.079Z,2.7
2018-01-17T10:57:02.706Z,2.7
2018-01-17T11:02:08.064Z,2.9
2018-01-17T11:07:03.427Z,3.1
2018-01-17T11:12:03.122Z,3.3
2018-01-17T11:17:13.132Z,3.3
2018-01-17T11:22:03.352Z,3.3
2018-01-17T11:27:03.031Z,3.2
2018-01-17T11:32:13.840Z,3.3
2018-01-17T11:37:03.320Z,3.1
2018-01-17T11:42:02.994Z,3.1
2018-01-17T11:47:13.724Z,3.5
2018-01-17T11:52:02.939Z,3.8
2018-01-17T11:57:03.606Z,3.8
2018-01-17T12:02:13.489Z,3.7
2018-01-17T12:07:03.064Z,3.7
2018-01-17T12:12:02.817Z,3.6
2018-01-17T12:17:13.920Z,3.6
2018-01-17T12:22:02.938Z,3.6
2018-01-17T12:27:03.543Z,4.0
2018-01-17T12:32:13.070Z,4.3
2018-01-17T12:37:02.866Z,4.4
2018-01-17T12:42:03.359Z,4.4
2018-01-17T12:47:13.442Z,4.2
2018-01-17T12:52:03.418Z,4.3
2018-01-17T12:57:02.898Z,4.2
2018-01-17T13:02:11.902Z,4.2
2018-01-17T13:07:03.159Z,4.3
2018-01-17T13:12:02.976Z,4.2
2018-01-17T13:17:13.313Z,4.2
2018-01-17T13:22:03.684Z,4.3
2018-01-17T13:27:03.133Z,4.3
2018-01-17T13:32:13.239Z,4.1
2018-01-17T13:37:03.323Z,3.9
2018-01-17T13:42:02.925Z,3.9
2018-01-17T13:47:13.777Z,3.7
2018-01-17T13:52:02.980Z,3.7
2018-01-17T13:57:03.532Z,3.7
2018-01-17T14:02:13.452Z,4.1
2018-01-17T14:07:02.925Z,4.0
2018-01-17T14:12:03.556Z,3.9
2018-01-17T14:17:13.401Z,3.7
2018-01-17T14:22:02.870Z,3.6
2018-01-17T14:27:03.537Z,3.6
2018-01-17T14:32:13.351Z,3.7
2018-01-17T14:37:02.738Z,3.9
2018-01-17T14:42:03.298Z,3.5
2018-01-17T14:47:13.475Z,3.5
2018-01-17T14:52:03.510Z,3.2
2018-01-17T14:57:03.197Z,3.2
2018-01-17T15:02:13.311Z,3.2
2018-01-17T15:07:02.919Z,3.1
2018-01-17T15:12:03.065Z,2.8
2018-01-17T15:17:13.944Z,2.6
2018-01-17T15:22:03.340Z,2.6
2018-01-17T15:27:03.060Z,2.6
2018-01-17T15:32:13.518Z,2.6
2018-01-17T15:37:02.849Z,2.8
2018-01-17T15:42:03.609Z,2.8
2018-01-17T15:47:16.826Z,2.9
2018-01-17T15:52:03.286Z,2.9
2018-01-17T15:57:03.216Z,3.0
2018-01-17T16:02:22.550Z,3.1
2018-01-17T16:07:03.288Z,3.1
2018-01-17T16:12:02.830Z,3.0
2018-01-17T16:17:13.516Z,3.0
2018-01-17T16:22:02.712Z,2.9
2018-01-17T16:27:03.310Z,2.8
2018-01-17T16:32:13.162Z,2.9
2018-01-17T16:37:03.438Z,2.8
2018-01-17T16:42:03.504Z,2.9
2018-01-17T16:47:05.865Z,3.0
2018-01-17T16:52:03.331Z,3.0
2018-01-17T16:57:02.708Z,3.0
2018-01-17T17:02:03.142Z,3.0
2018-01-17T17:07:03.537Z,3.1
2018-01-17T17:12:03.438Z,3.1
2018-01-17T17:17:02.997Z,3.1
2018-01-17T17:22:03.157Z,3.0
2018-01-17T17:27:02.903Z,3.0
2018-01-17T17:32:07.181Z,2.9
2018-01-17T17:37:03.375Z,2.9
2018-01-17T17:42:03.370Z,2.9
2018-01-17T17:47:03.696Z,2.9
2018-01-17T17:52:03.214Z,3.0
2018-01-17T17:57:03.316Z,3.0
2018-01-17T18:02:03.756Z,2.7
2018-01-17T18:07:03.554Z,2.7
2018-01-17T18:12:03.101Z,2.1
2018-01-17T18:17:03.868Z,2.1
2018-01-17T18:22:02.924Z,2.0
2018-01-17T18:27:03.289Z,2.0
2018-01-17T18:32:03.458Z,2.2
2018-01-17T18:37:02.789Z,2.1
2018-01-17T18:42:03.149Z,2.3
2018-01-17T18:47:03.800Z,2.4
2018-01-17T18:52:02.701Z,2.6
2018-01-17T18:57:02.979Z,2.6
2018-01-17T19:02:03.590Z,2.8
2018-01-17T19:07:02.897Z,2.7
2018-01-17T19:12:03.269Z,2.7
2018-01-17T19:17:03.838Z,2.7
2018-01-17T19:22:02.936Z,2.8
2018-01-17T19:27:03.097Z,2.7
2018-01-17T19:32:03.585Z,2.8
2018-01-17T19:37:02.875Z,2.8
2018-01-17T19:42:03.105Z,3.0
2018-01-17T19:47:03.605Z,3.0
2018-01-17T19:52:03.493Z,3.0
2018-01-17T19:57:02.887Z,3.0
2018-01-17T20:02:03.143Z,3.1
2018-01-17T20:07:03.416Z,3.1
2018-01-17T20:12:03.463Z,3.2
2018-01-17T20:17:03.384Z,3.2
2018-01-17T20:22:03.381Z,3.2
2018-01-17T20:27:03.511Z,3.1
2018-01-17T20:32:03.916Z,3.2
2018-01-17T20:37:02.968Z,3.1
2018-01-17T20:42:03.173Z,3.1
2018-01-17T20:47:03.501Z,3.2
2018-01-17T20:52:03.013Z,3.1
2018-01-17T20:57:03.249Z,3.2
2018-01-17T21:02:03.519Z,3.2
2018-01-17T21:07:03.243Z,3.2
2018-01-17T21:12:03.322Z,3.2
2018-01-17T21:17:03.324Z,3.3
2018-01-17T21:22:02.806Z,3.3
2018-01-17T21:27:03.192Z,3.3
2018-01-17T21:32:03.653Z,3.3
2018-01-17T21:37:03.053Z,3.1
2018-01-17T21:42:03.451Z,3.0
2018-01-17T21:47:02.783Z,3.0
2018-01-17T21:52:03.070Z,3.0
2018-01-17T21:57:03.258Z,2.9
2018-01-17T22:02:04.105Z,2.9
2018-01-17T22:07:03.017Z,2.9
2018-01-17T22:12:03.631Z,2.9
2018-01-17T22:17:03.227Z,2.9
2018-01-17T22:22:03.401Z,2.9
2018-01-17T22:27:03.700Z,3.0
2018-01-17T22:32:03.492Z,3.0
2018-01-17T22:37:02.826Z,3.0
2018-01-17T22:42:03.568Z,3.0
2018-01-17T22:47:03.280Z,3.1
2018-01-17T22:52:03.573Z,3.1
2018-01-17T22:57:02.844Z,3.1
2018-01-17T23:02:03.228Z,3.2
2018-01-17T23:07:03.476Z,3.2
2018-01-17T23:12:02.772Z,3.2
2018-01-17T23:22:03.958Z,3.2
2018-01-17T23:27:03.523Z,3.3
2018-01-17T23:32:03.548Z,3.2
2018-01-17T23:37:02.912Z,3.3
2018-01-17T23:42:02.922Z,3.4
2018-01-17T23:47:03.000Z,3.4
2018-01-17T23:52:03.422Z,3.4
2018-01-17T23:57:03.660Z,3.4
